Hlavní strana
METAR-TAF:

METAR-TAF

Letiště :

Tajima, Japonsko

zeměpisná šířka: 35-31N, zeměpisná délka: 134-48E, výška: 210 m

Aktuální stav počasí

Zpráva byla vytvořena před 12 hodinami a 56 minutami, v 09:00 UTC
Jihojihozápadní vítr 5 kt
Teplota 0°C
Vlhkost vzduchu 100%
Tlak 1021 hPa
Viditelnost: 1600 m
Skoro jasno ve výšce do 100 ft
Polojasno ve výšce 300 ft
Oblačno až skoro zataženo ve výšce 1500 ft
slabé sněhové přeháňky, chuchvalce mlhy

METAR: RJBT 180900Z 21005KT 1600 -SHSN BCFG FEW000 SCT003 BKN015 00/00 Q1021

Čas: 06:56 (21:56 UTC)


TAF: chybějící

Stav a předpovědi počasí z více než 4 000 letišť (zprávy METAR a TAF).

Červené a žluté tečky na mapě představují dostupné meteorologické stanice.

Když kurzor umístíte na tečku, zobrazí se název stanice.

Pak kliknutím zobrazíte stav a předpověď počasí.

Chcete-li změnit mapu, kliknutím na zelené tlačítko se znaménkem +mapu přiblížíte, kliknutím na zelené tlačítko se znaménkem – mapu oddálíte a kliknutím na zelené šipky přejdete na sousední mapy.


METAR-TAF: